createdAt,value
2022-12-08T00:01:42.362Z,11.38
2022-12-08T00:04:09.924Z,11.70
2022-12-08T00:06:58.879Z,12.15
2022-12-08T00:09:45.249Z,10.27
2022-12-08T00:12:13.672Z,10.63
2022-12-08T00:14:42.532Z,10.75
2022-12-08T00:17:10.482Z,11.73
2022-12-08T00:19:39.011Z,11.43
2022-12-08T00:22:06.819Z,11.05
2022-12-08T00:24:35.099Z,11.18
2022-12-08T00:27:02.374Z,10.75
2022-12-08T00:29:29.288Z,10.82
2022-12-08T00:31:56.327Z,12.25
2022-12-08T00:34:23.317Z,11.43
2022-12-08T00:36:50.202Z,11.15
2022-12-08T00:39:17.365Z,11.80
2022-12-08T00:42:02.982Z,10.75
2022-12-08T00:44:29.847Z,10.75
2022-12-08T00:46:56.693Z,11.45
2022-12-08T00:49:23.811Z,11.27
2022-12-08T00:51:50.959Z,10.80
2022-12-08T00:54:18.338Z,11.30
2022-12-08T00:56:45.296Z,10.90
2022-12-08T00:59:12.164Z,11.63
2022-12-08T01:01:39.016Z,10.85
2022-12-08T01:04:10.479Z,11.73
2022-12-08T01:06:38.162Z,11.32
2022-12-08T01:09:06.137Z,11.60
2022-12-08T01:11:33.196Z,12.05
2022-12-08T01:14:00.031Z,10.88
2022-12-08T01:16:31.472Z,12.23
2022-12-08T01:18:59.025Z,12.30
2022-12-08T01:21:26.724Z,11.68
2022-12-08T01:23:53.949Z,11.48
2022-12-08T01:26:20.829Z,11.43
2022-12-08T01:28:47.941Z,11.40
2022-12-08T01:31:19.948Z,11.10
2022-12-08T01:33:47.122Z,12.10
2022-12-08T01:36:41.120Z,12.13
2022-12-08T01:39:10.702Z,10.73
2022-12-08T01:41:39.459Z,11.30
2022-12-08T01:44:10.817Z,11.63
2022-12-08T01:46:42.181Z,11.38
2022-12-08T01:49:20.920Z,11.18
2022-12-08T01:51:52.802Z,12.45
2022-12-08T01:54:19.969Z,12.32
2022-12-08T01:56:51.583Z,12.63
2022-12-08T01:59:18.439Z,11.67
2022-12-08T02:01:51.226Z,11.35
2022-12-08T02:04:18.161Z,11.27
2022-12-08T02:06:45.310Z,11.48
2022-12-08T02:09:12.113Z,11.93
2022-12-08T02:11:38.933Z,11.02
2022-12-08T02:14:07.205Z,10.95
2022-12-08T02:16:56.051Z,11.57
2022-12-08T02:19:47.456Z,11.55
2022-12-08T02:22:22.780Z,12.20
2022-12-08T02:25:23.109Z,12.27
2022-12-08T02:28:31.633Z,12.60
2022-12-08T02:31:26.839Z,11.93
2022-12-08T02:34:06.474Z,11.88
2022-12-08T02:37:02.016Z,11.13
2022-12-08T02:39:38.051Z,11.02
2022-12-08T02:42:27.711Z,11.55
2022-12-08T02:45:11.227Z,12.23
2022-12-08T02:47:38.135Z,11.60
2022-12-08T02:50:05.722Z,12.75
2022-12-08T02:52:32.751Z,11.73
2022-12-08T02:55:06.468Z,12.90
2022-12-08T02:57:45.582Z,12.20
2022-12-08T03:00:17.107Z,12.25
2022-12-08T03:02:44.028Z,11.43
2022-12-08T03:05:23.192Z,12.55
2022-12-08T03:07:55.839Z,12.15
2022-12-08T03:10:33.831Z,12.30
2022-12-08T03:13:14.744Z,13.02
2022-12-08T03:15:42.154Z,11.43
2022-12-08T03:18:11.155Z,11.60
2022-12-08T03:20:37.990Z,11.93
2022-12-08T03:23:06.317Z,12.35
2022-12-08T03:25:34.164Z,12.40
2022-12-08T03:28:01.027Z,12.07
2022-12-08T03:30:28.654Z,12.63
2022-12-08T03:33:29.295Z,11.95
2022-12-08T03:35:56.189Z,12.63
2022-12-08T03:38:23.001Z,11.85
2022-12-08T03:41:09.878Z,13.18
2022-12-08T03:43:36.722Z,12.43
2022-12-08T03:46:03.612Z,12.07
2022-12-08T03:48:30.524Z,12.30
2022-12-08T03:50:57.422Z,13.27
2022-12-08T03:53:24.241Z,12.55
2022-12-08T03:55:51.083Z,13.10
2022-12-08T03:58:17.872Z,12.75
2022-12-08T04:00:45.011Z,13.02
2022-12-08T04:03:11.888Z,13.27
2022-12-08T04:05:38.737Z,12.80
2022-12-08T04:08:05.798Z,11.68
2022-12-08T04:10:32.661Z,12.90
2022-12-08T04:12:59.498Z,13.07
2022-12-08T04:15:26.320Z,11.93
2022-12-08T04:17:53.118Z,13.52
2022-12-08T04:20:19.969Z,13.75
2022-12-08T04:22:46.870Z,13.93
2022-12-08T04:25:13.942Z,13.57
2022-12-08T04:27:40.785Z,13.18
2022-12-08T04:30:08.356Z,13.10
2022-12-08T04:32:35.212Z,13.95
2022-12-08T04:35:02.009Z,12.65
2022-12-08T04:37:29.015Z,13.07
2022-12-08T04:39:55.822Z,13.70
2022-12-08T04:42:22.703Z,12.82
2022-12-08T04:44:49.546Z,13.68
2022-12-08T04:47:16.474Z,13.30
2022-12-08T04:49:43.390Z,13.25
2022-12-08T04:52:10.266Z,13.90
2022-12-08T04:54:37.121Z,14.20
2022-12-08T04:57:04.026Z,13.85
2022-12-08T04:59:31.064Z,13.25
2022-12-08T05:01:58.061Z,13.75
2022-12-08T05:04:25.054Z,13.15
2022-12-08T05:06:51.901Z,13.35
2022-12-08T05:09:18.742Z,13.32
2022-12-08T05:11:49.010Z,13.43
2022-12-08T05:14:16.839Z,13.27
2022-12-08T05:16:44.057Z,13.57
2022-12-08T05:19:11.403Z,14.18
2022-12-08T05:21:38.286Z,13.85
2022-12-08T05:24:05.537Z,13.48
2022-12-08T05:26:32.373Z,13.77
2022-12-08T05:28:59.334Z,13.10
2022-12-08T05:31:26.162Z,13.77
2022-12-08T05:33:53.322Z,13.77
2022-12-08T05:36:20.256Z,14.23
2022-12-08T05:38:47.330Z,13.52
2022-12-08T05:41:18.691Z,13.48
2022-12-08T05:43:45.630Z,13.63
2022-12-08T05:46:12.758Z,13.65
2022-12-08T05:48:40.004Z,13.82
2022-12-08T05:51:08.302Z,13.43
2022-12-08T05:53:35.170Z,12.93
2022-12-08T05:56:01.968Z,14.00
2022-12-08T05:58:28.889Z,12.48
2022-12-08T06:00:55.717Z,14.75
2022-12-08T06:03:22.604Z,13.65
2022-12-08T06:05:49.502Z,12.70
2022-12-08T06:08:16.440Z,13.55
2022-12-08T06:10:44.204Z,14.00
2022-12-08T06:13:12.303Z,13.77
2022-12-08T06:15:39.605Z,13.57
2022-12-08T06:18:06.696Z,12.68
2022-12-08T06:20:33.744Z,13.07
2022-12-08T06:23:00.711Z,12.82
2022-12-08T06:25:27.675Z,12.68
2022-12-08T06:27:54.501Z,12.88
2022-12-08T06:30:21.363Z,13.25
2022-12-08T06:32:48.205Z,12.10
2022-12-08T06:35:15.065Z,13.63
2022-12-08T06:37:41.889Z,12.65
2022-12-08T06:40:09.190Z,12.07
2022-12-08T06:42:45.200Z,12.18
2022-12-08T06:45:13.000Z,13.70
2022-12-08T06:47:39.865Z,12.48
2022-12-08T06:50:07.709Z,11.57
2022-12-08T06:52:37.671Z,12.00
2022-12-08T06:55:08.501Z,12.02
2022-12-08T06:57:35.635Z,12.48
2022-12-08T07:00:04.064Z,11.77
2022-12-08T07:02:31.258Z,12.38
2022-12-08T07:04:58.105Z,13.32
2022-12-08T07:07:24.921Z,12.00
2022-12-08T07:09:51.809Z,11.77
2022-12-08T07:12:18.605Z,12.70
2022-12-08T07:14:45.463Z,12.25
2022-12-08T07:17:12.380Z,12.25
2022-12-08T07:19:39.215Z,12.10
2022-12-08T07:22:06.060Z,12.30
2022-12-08T07:24:33.355Z,12.25
2022-12-08T07:27:00.267Z,11.18
2022-12-08T07:29:27.094Z,11.95
2022-12-08T07:31:53.923Z,12.75
2022-12-08T07:34:20.824Z,14.30
2022-12-08T07:36:47.710Z,12.07
2022-12-08T07:39:14.565Z,11.65
2022-12-08T07:41:41.440Z,11.50
2022-12-08T07:44:09.112Z,11.95
2022-12-08T07:46:35.998Z,12.55
2022-12-08T07:49:02.906Z,12.05
2022-12-08T07:51:29.833Z,12.35
2022-12-08T07:53:56.675Z,12.05
2022-12-08T07:56:23.774Z,12.05
2022-12-08T07:58:50.664Z,12.38
2022-12-08T08:01:21.465Z,12.25
2022-12-08T08:03:48.526Z,12.07
2022-12-08T08:06:15.566Z,11.85
2022-12-08T08:08:42.508Z,12.40
2022-12-08T08:11:17.419Z,12.57
2022-12-08T08:13:48.001Z,12.18
2022-12-08T08:16:15.018Z,11.45
2022-12-08T08:18:42.053Z,12.13
2022-12-08T08:21:43.113Z,12.68
2022-12-08T08:23:55.960Z,12.40
2022-12-08T08:26:22.912Z,11.65
2022-12-08T08:28:50.169Z,12.23
2022-12-08T08:31:17.137Z,11.60
2022-12-08T08:33:44.040Z,11.98
2022-12-08T08:36:11.538Z,11.73
2022-12-08T08:38:42.857Z,11.27
2022-12-08T08:41:12.769Z,12.50
2022-12-08T08:43:39.799Z,13.27
2022-12-08T08:46:07.065Z,12.48
2022-12-08T08:48:34.326Z,12.23
2022-12-08T08:51:08.016Z,12.50
2022-12-08T08:53:34.971Z,13.23
2022-12-08T08:56:03.045Z,11.90
2022-12-08T08:58:30.208Z,12.20
2022-12-08T09:00:57.054Z,12.73
2022-12-08T09:03:23.960Z,12.10
2022-12-08T09:05:51.499Z,15.43
2022-12-08T09:08:18.752Z,15.93
2022-12-08T09:10:45.848Z,16.58
2022-12-08T09:13:13.486Z,17.45
2022-12-08T09:15:40.414Z,17.35
2022-12-08T09:18:07.465Z,14.75
2022-12-08T09:20:34.956Z,13.68
2022-12-08T09:23:01.949Z,11.82
2022-12-08T09:25:28.979Z,12.00
2022-12-08T09:27:55.955Z,11.95
2022-12-08T09:30:23.122Z,11.88
2022-12-08T09:32:50.138Z,11.73
2022-12-08T09:35:17.079Z,11.65
2022-12-08T09:37:44.495Z,11.95
2022-12-08T09:40:15.573Z,10.85
2022-12-08T09:42:42.443Z,11.98
2022-12-08T09:45:13.150Z,11.60
2022-12-08T09:47:46.625Z,12.15
2022-12-08T09:50:42.188Z,11.55
2022-12-08T09:53:14.524Z,12.30
2022-12-08T09:55:57.841Z,11.50
2022-12-08T09:58:31.391Z,11.75
2022-12-08T10:00:58.530Z,12.82
2022-12-08T10:03:28.956Z,12.30
2022-12-08T10:06:20.070Z,11.88
2022-12-08T10:08:55.473Z,12.02
2022-12-08T10:12:00.190Z,13.27
2022-12-08T10:14:30.122Z,12.75
2022-12-08T10:17:01.343Z,13.00
2022-12-08T10:19:28.341Z,13.48
2022-12-08T10:21:55.200Z,14.60
2022-12-08T10:24:31.761Z,13.63
2022-12-08T10:26:58.672Z,12.90
2022-12-08T10:29:25.592Z,13.52
2022-12-08T10:31:52.555Z,13.57
2022-12-08T10:34:26.200Z,13.55
2022-12-08T10:37:00.648Z,14.02
2022-12-08T10:39:37.959Z,13.23
2022-12-08T10:42:21.862Z,13.25
2022-12-08T10:45:15.409Z,12.32
2022-12-08T10:47:45.319Z,13.45
2022-12-08T10:50:27.982Z,12.73
2022-12-08T10:52:57.124Z,14.10
2022-12-08T10:55:24.133Z,13.30
2022-12-08T10:57:51.175Z,14.70
2022-12-08T11:00:24.772Z,13.55
2022-12-08T11:03:02.623Z,14.98
2022-12-08T11:05:34.798Z,13.70
2022-12-08T11:08:01.957Z,12.48
2022-12-08T11:10:43.042Z,13.40
2022-12-08T11:13:19.901Z,12.82
2022-12-08T11:15:46.850Z,12.13
2022-12-08T11:18:39.013Z,13.00
2022-12-08T11:21:15.363Z,12.35
2022-12-08T11:23:43.630Z,13.00
2022-12-08T11:26:32.349Z,13.02
2022-12-08T11:28:59.292Z,13.00
2022-12-08T11:31:26.261Z,13.05
2022-12-08T11:33:53.240Z,12.43
2022-12-08T11:36:21.076Z,13.35
2022-12-08T11:38:48.235Z,12.23
2022-12-08T11:41:16.992Z,13.75
2022-12-08T11:44:06.332Z,13.00
2022-12-08T11:46:54.109Z,13.80
2022-12-08T11:49:21.068Z,14.55
2022-12-08T11:51:53.492Z,14.07
2022-12-08T11:54:27.529Z,13.93
2022-12-08T11:56:59.211Z,14.60
2022-12-08T11:59:39.518Z,14.13
2022-12-08T12:02:06.517Z,13.30
2022-12-08T12:04:37.951Z,14.18
2022-12-08T12:07:19.418Z,13.95
2022-12-08T12:10:13.459Z,13.35
2022-12-08T12:13:18.767Z,14.15
2022-12-08T12:16:12.806Z,14.10
2022-12-08T12:18:46.506Z,15.10
2022-12-08T12:21:23.261Z,15.00
2022-12-08T12:24:16.372Z,14.40
2022-12-08T12:26:58.545Z,15.10
2022-12-08T12:29:27.311Z,14.77
2022-12-08T12:31:59.375Z,15.25
2022-12-08T12:34:28.613Z,15.52
2022-12-08T12:37:16.322Z,15.50
2022-12-08T12:39:53.943Z,15.13
2022-12-08T12:42:37.808Z,15.07
2022-12-08T12:45:16.763Z,14.82
2022-12-08T12:47:51.041Z,14.52
2022-12-08T12:50:34.749Z,15.15
2022-12-08T12:53:10.632Z,14.38
2022-12-08T12:55:52.841Z,14.85
2022-12-08T12:58:29.831Z,14.73
2022-12-08T13:01:11.933Z,13.52
2022-12-08T13:03:46.239Z,14.23
2022-12-08T13:06:15.191Z,13.73
2022-12-08T13:08:54.829Z,14.27
2022-12-08T13:11:21.966Z,14.25
2022-12-08T13:13:58.780Z,14.35
2022-12-08T13:16:26.552Z,13.82
2022-12-08T13:18:57.486Z,13.57
2022-12-08T13:21:25.523Z,13.70
2022-12-08T13:24:11.129Z,13.45
2022-12-08T13:26:47.978Z,14.65
2022-12-08T13:29:24.935Z,14.00
2022-12-08T13:31:59.295Z,13.45
2022-12-08T13:34:45.837Z,13.98
2022-12-08T13:37:13.633Z,14.07
2022-12-08T13:39:40.649Z,14.35
2022-12-08T13:42:43.841Z,13.05
2022-12-08T13:48:41.640Z,11.13
2022-12-08T13:53:22.489Z,12.30
2022-12-08T13:57:36.779Z,12.30
2022-12-08T14:00:13.198Z,12.13
2022-12-08T14:02:47.890Z,12.90
2022-12-08T14:05:26.417Z,13.13
2022-12-08T14:08:02.019Z,11.50
2022-12-08T14:10:30.499Z,12.40
2022-12-08T14:13:02.363Z,12.13
2022-12-08T14:15:35.574Z,11.85
2022-12-08T14:18:04.428Z,11.88
2022-12-08T14:20:33.832Z,12.10
2022-12-08T14:23:09.713Z,12.38
2022-12-08T14:25:37.352Z,12.05
2022-12-08T14:28:04.535Z,11.68
2022-12-08T14:30:32.381Z,11.98
2022-12-08T14:33:02.582Z,10.95
2022-12-08T14:35:34.095Z,11.75
2022-12-08T14:38:14.929Z,11.05
2022-12-08T14:40:45.549Z,9.70
2022-12-08T14:43:13.698Z,9.88
2022-12-08T14:45:40.562Z,10.10
2022-12-08T14:48:33.448Z,9.73
2022-12-08T14:51:19.640Z,9.13
2022-12-08T14:54:05.873Z,8.90
2022-12-08T14:57:03.159Z,8.02
2022-12-08T14:59:31.681Z,7.78
2022-12-08T15:02:20.762Z,7.22
2022-12-08T15:04:49.628Z,7.43
2022-12-08T15:07:18.102Z,7.55
2022-12-08T15:09:47.083Z,6.90
2022-12-08T15:12:13.934Z,7.15
2022-12-08T15:14:42.521Z,6.88
2022-12-08T15:17:31.764Z,7.07
2022-12-08T15:19:59.302Z,6.88
2022-12-08T15:22:26.815Z,7.28
2022-12-08T15:24:54.071Z,6.97
2022-12-08T15:27:21.831Z,7.22
2022-12-08T15:29:48.801Z,7.70
2022-12-08T15:32:20.689Z,7.60
2022-12-08T15:34:47.658Z,8.75
2022-12-08T15:37:20.828Z,7.32
2022-12-08T15:39:48.113Z,7.68
2022-12-08T15:42:15.121Z,7.78
2022-12-08T15:44:42.223Z,7.22
2022-12-08T15:47:16.252Z,6.90
2022-12-08T15:49:43.328Z,7.65
2022-12-08T15:52:14.962Z,7.60
2022-12-08T15:54:41.893Z,7.93
2022-12-08T15:57:44.104Z,7.68
2022-12-08T16:00:50.038Z,8.43
2022-12-08T16:03:27.873Z,7.90
2022-12-08T16:06:31.099Z,8.73
2022-12-08T16:08:49.435Z,8.65
2022-12-08T16:12:05.423Z,12.52
2022-12-08T16:17:18.674Z,11.98
2022-12-08T16:19:45.721Z,11.43
2022-12-08T16:22:52.485Z,10.63
2022-12-08T16:25:17.851Z,10.50
2022-12-08T16:30:33.415Z,10.63
2022-12-08T16:33:00.573Z,12.07
2022-12-08T16:35:27.573Z,13.73
2022-12-08T16:37:54.475Z,12.93
2022-12-08T16:40:21.507Z,11.02
2022-12-08T16:42:50.398Z,10.43
2022-12-08T16:45:21.566Z,11.80
2022-12-08T16:47:55.162Z,12.90
2022-12-08T16:50:25.151Z,13.70
2022-12-08T16:52:57.137Z,12.88
2022-12-08T16:55:24.024Z,13.35
2022-12-08T16:57:50.881Z,12.45
2022-12-08T17:00:19.955Z,13.07
2022-12-08T17:02:47.033Z,13.07
2022-12-08T17:05:15.128Z,13.77
2022-12-08T17:07:42.858Z,12.13
2022-12-08T17:10:10.694Z,12.98
2022-12-08T17:12:40.707Z,13.93
2022-12-08T17:15:09.214Z,13.68
2022-12-08T17:17:36.548Z,13.02
2022-12-08T17:20:08.264Z,12.90
2022-12-08T17:22:35.470Z,14.07
2022-12-08T17:25:02.567Z,13.18
2022-12-08T17:27:29.417Z,13.52
2022-12-08T17:29:56.365Z,14.52
2022-12-08T17:32:23.425Z,14.57
2022-12-08T17:34:50.619Z,14.07
2022-12-08T17:37:18.635Z,15.50
2022-12-08T17:39:45.747Z,16.38
2022-12-08T17:42:12.931Z,15.48
2022-12-08T17:44:39.815Z,15.38
2022-12-08T17:47:06.693Z,16.80
2022-12-08T17:49:34.052Z,17.88
2022-12-08T17:52:02.904Z,16.65
2022-12-08T17:54:30.074Z,18.15
2022-12-08T17:56:59.733Z,18.63
2022-12-08T17:59:27.314Z,18.13
2022-12-08T18:01:54.940Z,17.95
2022-12-08T18:04:22.060Z,17.05
2022-12-08T18:06:49.044Z,18.27
2022-12-08T18:09:16.045Z,17.13
2022-12-08T18:11:43.370Z,16.83
2022-12-08T18:14:10.452Z,16.77
2022-12-08T18:16:38.652Z,15.60
2022-12-08T18:19:06.057Z,15.27
2022-12-08T18:21:33.186Z,16.30
2022-12-08T18:24:00.097Z,15.75
2022-12-08T18:26:27.172Z,14.93
2022-12-08T18:28:54.125Z,16.60
2022-12-08T18:31:21.431Z,16.83
2022-12-08T18:33:48.530Z,16.38
2022-12-08T18:36:17.036Z,16.50
2022-12-08T18:38:44.022Z,16.67
2022-12-08T18:41:13.048Z,16.45
2022-12-08T18:43:40.671Z,15.38
2022-12-08T18:46:09.517Z,15.38
2022-12-08T18:48:37.348Z,14.82
2022-12-08T18:51:05.927Z,15.18
2022-12-08T18:53:32.852Z,15.45
2022-12-08T18:55:59.742Z,15.35
2022-12-08T18:58:26.644Z,14.38
2022-12-08T19:00:53.531Z,14.52
2022-12-08T19:03:22.514Z,14.50
2022-12-08T19:05:49.395Z,14.05
2022-12-08T19:08:16.324Z,14.57
2022-12-08T19:10:43.275Z,14.85
2022-12-08T19:13:10.551Z,14.23
2022-12-08T19:15:37.496Z,14.18
2022-12-08T19:18:04.873Z,15.10
2022-12-08T19:20:31.876Z,15.55
2022-12-08T19:22:58.739Z,15.77
2022-12-08T19:25:25.680Z,15.27
2022-12-08T19:27:52.519Z,15.38
2022-12-08T19:30:19.468Z,15.73
2022-12-08T19:32:46.444Z,15.60
2022-12-08T19:35:13.341Z,17.27
2022-12-08T19:37:40.552Z,14.85
2022-12-08T19:40:26.582Z,15.70
2022-12-08T19:43:11.950Z,14.82
2022-12-08T19:45:38.928Z,14.55
2022-12-08T19:48:06.072Z,14.65
2022-12-08T19:50:39.735Z,14.30
2022-12-08T19:53:11.963Z,14.30
2022-12-08T19:55:39.111Z,15.20
2022-12-08T19:58:06.276Z,14.13
2022-12-08T20:00:33.924Z,15.13
2022-12-08T20:03:02.076Z,15.07
2022-12-08T20:05:29.854Z,14.32
2022-12-08T20:07:56.925Z,15.45
2022-12-08T20:10:29.036Z,14.15
2022-12-08T20:13:16.237Z,13.82
2022-12-08T20:15:43.513Z,14.57
2022-12-08T20:18:13.172Z,14.13
2022-12-08T20:20:42.155Z,13.95
2022-12-08T20:23:09.027Z,13.90
2022-12-08T20:25:38.700Z,14.10
2022-12-08T20:28:05.746Z,13.88
2022-12-08T20:30:32.595Z,13.40
2022-12-08T20:32:59.452Z,13.45
2022-12-08T20:35:26.456Z,13.38
2022-12-08T20:37:53.399Z,13.15
2022-12-08T20:40:20.771Z,12.32
2022-12-08T20:42:47.724Z,12.32
2022-12-08T20:45:14.572Z,12.88
2022-12-08T20:47:41.532Z,12.52
2022-12-08T20:50:09.262Z,12.82
2022-12-08T20:52:37.950Z,12.68
2022-12-08T20:55:08.067Z,11.75
2022-12-08T20:57:35.267Z,13.80
2022-12-08T21:00:02.187Z,13.38
2022-12-08T21:02:29.407Z,13.77
2022-12-08T21:04:57.108Z,13.70
2022-12-08T21:07:24.131Z,13.43
2022-12-08T21:09:51.170Z,14.43
2022-12-08T21:12:18.180Z,13.07
2022-12-08T21:14:45.264Z,12.98
2022-12-08T21:17:12.381Z,14.50
2022-12-08T21:19:39.684Z,13.30
2022-12-08T21:22:06.783Z,13.32
2022-12-08T21:24:34.649Z,14.23
2022-12-08T21:27:01.930Z,12.75
2022-12-08T21:29:28.933Z,13.25
2022-12-08T21:31:58.661Z,12.43
2022-12-08T21:34:26.704Z,12.88
2022-12-08T21:36:53.645Z,12.25
2022-12-08T21:39:20.749Z,12.80
2022-12-08T21:42:06.672Z,12.07
2022-12-08T21:44:36.293Z,11.57
2022-12-08T21:47:06.561Z,12.00
2022-12-08T21:49:33.696Z,11.25
2022-12-08T21:52:00.683Z,12.45
2022-12-08T21:54:28.346Z,13.32
2022-12-08T21:56:55.289Z,11.98
2022-12-08T21:59:22.302Z,11.73
2022-12-08T22:01:49.673Z,11.55
2022-12-08T22:04:18.174Z,11.82
2022-12-08T22:06:45.988Z,12.55
2022-12-08T22:09:15.646Z,11.88
2022-12-08T22:11:43.562Z,12.70
2022-12-08T22:14:15.316Z,13.25
2022-12-08T22:16:43.760Z,12.77
2022-12-08T22:19:12.157Z,12.25
2022-12-08T22:21:39.181Z,12.93
2022-12-08T22:24:06.407Z,12.60
2022-12-08T22:26:36.014Z,12.20
2022-12-08T22:29:03.012Z,12.02
2022-12-08T22:31:30.007Z,12.18
2022-12-08T22:33:56.921Z,12.80
2022-12-08T22:36:24.710Z,12.15
2022-12-08T22:38:51.939Z,12.90
2022-12-08T22:41:22.282Z,14.27
2022-12-08T22:43:49.768Z,13.10
2022-12-08T22:46:21.559Z,12.60
2022-12-08T22:48:51.926Z,13.75
2022-12-08T22:51:18.954Z,13.05
2022-12-08T22:53:46.139Z,13.40
2022-12-08T22:56:13.688Z,12.68
2022-12-08T22:58:40.934Z,12.90
2022-12-08T23:01:08.430Z,13.40
2022-12-08T23:03:38.975Z,12.93
2022-12-08T23:06:12.462Z,13.63
2022-12-08T23:08:39.679Z,12.95
2022-12-08T23:11:06.904Z,12.40
2022-12-08T23:13:34.593Z,12.77
2022-12-08T23:16:01.829Z,11.90
2022-12-08T23:18:28.800Z,13.18
2022-12-08T23:20:55.767Z,14.00
2022-12-08T23:23:22.658Z,13.13
2022-12-08T23:25:49.495Z,12.82
2022-12-08T23:28:16.653Z,13.40
2022-12-08T23:30:43.635Z,11.88
2022-12-08T23:33:10.648Z,12.55
2022-12-08T23:35:37.701Z,12.30
2022-12-08T23:38:04.775Z,12.70
2022-12-08T23:40:31.924Z,12.27
2022-12-08T23:42:59.141Z,13.18
2022-12-08T23:45:26.112Z,13.45
2022-12-08T23:47:53.176Z,12.13
2022-12-08T23:50:20.194Z,11.95
2022-12-08T23:52:47.044Z,12.55
2022-12-08T23:55:14.144Z,12.32
2022-12-08T23:57:41.077Z,12.45
